createdAt,value
2018-12-30T00:01:15.588Z,222.63
2018-12-30T00:03:47.410Z,214.60
2018-12-30T00:06:19.182Z,203.22
2018-12-30T00:08:50.993Z,180.30
2018-12-30T00:11:22.386Z,155.27
2018-12-30T00:13:53.848Z,165.75
2018-12-30T00:16:25.281Z,172.35
2018-12-30T00:18:56.540Z,159.75
2018-12-30T00:21:27.820Z,162.18
2018-12-30T00:23:59.088Z,185.60
2018-12-30T00:26:30.397Z,158.30
2018-12-30T00:29:01.993Z,144.85
2018-12-30T00:31:33.107Z,144.22
2018-12-30T00:34:04.480Z,156.00
2018-12-30T00:36:35.686Z,161.73
2018-12-30T00:39:08.198Z,160.70
2018-12-30T00:41:39.452Z,143.10
2018-12-30T00:44:10.798Z,154.60
2018-12-30T00:46:42.003Z,156.00
2018-12-30T00:49:13.463Z,141.03
2018-12-30T00:51:45.066Z,137.95
2018-12-30T00:54:16.427Z,130.55
2018-12-30T00:56:48.114Z,123.95
2018-12-30T00:59:19.544Z,113.17
2018-12-30T01:01:50.912Z,103.47
2018-12-30T01:04:22.575Z,92.57
2018-12-30T01:06:53.964Z,101.97
2018-12-30T01:09:25.564Z,86.82
2018-12-30T01:11:57.061Z,86.53
2018-12-30T01:14:28.873Z,85.10
2018-12-30T01:17:00.226Z,86.30
2018-12-30T01:19:31.664Z,89.52
2018-12-30T01:22:02.953Z,96.28
2018-12-30T01:24:34.164Z,106.00
2018-12-30T01:27:05.875Z,109.78
2018-12-30T01:29:37.301Z,93.78
2018-12-30T01:32:08.827Z,101.92
2018-12-30T01:34:40.342Z,96.45
2018-12-30T01:37:11.717Z,100.42
2018-12-30T01:39:43.006Z,117.20
2018-12-30T01:42:14.371Z,103.17
2018-12-30T01:44:45.766Z,98.87
2018-12-30T01:47:17.442Z,100.67
2018-12-30T01:49:49.871Z,89.17
2018-12-30T01:52:21.094Z,90.42
2018-12-30T01:54:52.704Z,87.92
2018-12-30T01:57:23.949Z,93.30
2018-12-30T01:59:55.423Z,95.95
2018-12-30T02:02:26.691Z,94.37
2018-12-30T02:04:57.946Z,91.82
2018-12-30T02:07:29.136Z,92.17
2018-12-30T02:10:00.890Z,96.42
2018-12-30T02:12:32.155Z,98.42
2018-12-30T02:15:03.543Z,102.42
2018-12-30T02:17:53.467Z,105.92
2018-12-30T02:20:24.905Z,107.92
2018-12-30T02:22:56.033Z,96.78
2018-12-30T02:25:27.590Z,95.40
2018-12-30T02:27:59.029Z,102.62
2018-12-30T02:30:30.739Z,115.08
2018-12-30T02:33:02.013Z,91.35
2018-12-30T02:35:33.414Z,110.85
2018-12-30T02:38:04.723Z,103.27
2018-12-30T02:40:36.596Z,107.70
2018-12-30T02:43:07.734Z,111.68
2018-12-30T02:45:38.882Z,109.35
2018-12-30T02:48:10.343Z,104.95
2018-12-30T02:50:41.846Z,103.22
2018-12-30T02:53:13.198Z,104.40
2018-12-30T02:55:44.792Z,107.45
2018-12-30T02:58:16.120Z,103.47
2018-12-30T03:00:47.512Z,109.55
2018-12-30T03:03:18.700Z,100.62
2018-12-30T03:05:50.165Z,109.67
2018-12-30T03:08:21.488Z,111.10
2018-12-30T03:10:52.970Z,117.05
2018-12-30T03:13:24.241Z,109.32
2018-12-30T03:15:55.530Z,109.63
2018-12-30T03:18:26.868Z,119.45
2018-12-30T03:20:58.320Z,120.53
2018-12-30T03:23:29.359Z,114.75
2018-12-30T03:26:00.751Z,110.05
2018-12-30T03:28:32.037Z,107.22
2018-12-30T03:31:03.558Z,113.50
2018-12-30T03:33:34.829Z,101.53
2018-12-30T03:36:06.524Z,111.30
2018-12-30T03:38:37.693Z,113.92
2018-12-30T03:41:09.000Z,107.97
2018-12-30T03:43:40.169Z,108.60
2018-12-30T03:46:11.639Z,109.32
2018-12-30T03:48:42.867Z,120.08
2018-12-30T03:51:14.413Z,140.30
2018-12-30T03:53:45.845Z,143.70
2018-12-30T03:56:17.240Z,133.52
2018-12-30T03:58:48.635Z,132.45
2018-12-30T04:01:19.842Z,146.55
2018-12-30T04:03:51.024Z,146.53
2018-12-30T04:06:22.556Z,155.27
2018-12-30T04:08:53.966Z,147.53
2018-12-30T04:11:25.619Z,167.05
2018-12-30T04:13:56.766Z,154.35
2018-12-30T04:16:28.832Z,151.57
2018-12-30T04:19:00.279Z,145.90
2018-12-30T04:21:32.137Z,142.37
2018-12-30T04:24:03.532Z,141.62
2018-12-30T04:26:35.119Z,147.75
2018-12-30T04:29:06.392Z,153.27
2018-12-30T04:31:37.789Z,172.75
2018-12-30T04:34:09.027Z,162.47
2018-12-30T04:36:40.374Z,154.35
2018-12-30T04:39:11.699Z,166.30
2018-12-30T04:41:43.154Z,160.43
2018-12-30T04:44:14.497Z,169.57
2018-12-30T04:46:45.949Z,169.05
2018-12-30T04:49:17.160Z,165.80
2018-12-30T04:51:48.494Z,163.87
2018-12-30T04:54:19.467Z,162.22
2018-12-30T04:56:51.004Z,166.05
2018-12-30T04:59:22.155Z,163.65
2018-12-30T05:01:53.740Z,175.32
2018-12-30T05:04:24.891Z,189.00
2018-12-30T05:06:56.172Z,163.72
2018-12-30T05:09:27.302Z,176.18
2018-12-30T05:11:58.536Z,163.82
2018-12-30T05:14:29.891Z,172.40
2018-12-30T05:17:01.525Z,169.43
2018-12-30T05:19:33.177Z,162.40
2018-12-30T05:22:04.495Z,166.60
2018-12-30T05:24:35.656Z,163.55
2018-12-30T05:27:07.254Z,170.02
2018-12-30T05:29:38.768Z,159.90
2018-12-30T05:32:10.087Z,161.97
2018-12-30T05:34:41.425Z,153.53
2018-12-30T05:37:12.860Z,137.88
2018-12-30T05:39:44.220Z,132.57
2018-12-30T05:42:15.749Z,122.25
2018-12-30T05:44:47.165Z,121.28
2018-12-30T05:47:18.637Z,123.50
2018-12-30T05:49:50.329Z,116.67
2018-12-30T05:52:21.683Z,113.65
2018-12-30T05:55:04.649Z,121.92
2018-12-30T05:57:35.867Z,118.53
2018-12-30T06:00:08.417Z,119.87
2018-12-30T06:02:39.509Z,115.97
2018-12-30T06:05:10.662Z,157.35
2018-12-30T06:07:42.078Z,247.20
2018-12-30T06:10:13.420Z,180.57
2018-12-30T06:12:44.810Z,160.55
2018-12-30T06:15:27.493Z,130.97
2018-12-30T06:17:58.808Z,86.82
2018-12-30T06:20:30.180Z,92.08
2018-12-30T06:23:01.391Z,85.45
2018-12-30T06:25:33.024Z,96.05
2018-12-30T06:28:05.155Z,105.97
2018-12-30T06:30:36.595Z,93.45
2018-12-30T06:33:08.113Z,91.08
2018-12-30T06:35:40.681Z,88.97
2018-12-30T06:38:12.022Z,86.37
2018-12-30T06:40:43.254Z,93.75
2018-12-30T06:43:14.613Z,106.30
2018-12-30T06:45:46.561Z,143.25
2018-12-30T06:48:17.800Z,150.85
2018-12-30T06:50:49.737Z,132.52
2018-12-30T06:53:21.121Z,130.40
2018-12-30T06:55:52.777Z,134.67
2018-12-30T06:58:24.081Z,124.18
2018-12-30T07:00:55.425Z,123.05
2018-12-30T07:03:26.538Z,125.07
2018-12-30T07:05:57.556Z,124.13
2018-12-30T07:08:28.889Z,186.97
2018-12-30T07:11:00.382Z,128.87
2018-12-30T07:13:31.666Z,131.73
2018-12-30T07:16:02.906Z,130.13
2018-12-30T07:18:34.492Z,136.20
2018-12-30T07:21:05.686Z,145.33
2018-12-30T07:23:37.053Z,139.43
2018-12-30T07:26:08.487Z,153.00
2018-12-30T07:28:40.036Z,160.87
2018-12-30T07:31:11.317Z,160.85
2018-12-30T07:33:42.676Z,160.33
2018-12-30T07:36:13.940Z,148.20
2018-12-30T07:38:45.158Z,153.83
2018-12-30T07:41:16.884Z,142.03
2018-12-30T07:43:48.302Z,129.03
2018-12-30T07:46:19.851Z,116.73
2018-12-30T07:48:51.626Z,113.03
2018-12-30T07:51:23.095Z,106.07
2018-12-30T07:53:54.271Z,107.97
2018-12-30T07:56:25.788Z,111.77
2018-12-30T07:58:56.962Z,90.70
2018-12-30T08:01:29.397Z,85.83
2018-12-30T08:04:00.824Z,126.70
2018-12-30T08:06:32.186Z,131.57
2018-12-30T08:09:04.654Z,117.23
2018-12-30T08:11:36.047Z,82.87
2018-12-30T08:14:07.592Z,89.07
2018-12-30T08:16:39.077Z,86.87
2018-12-30T08:19:10.463Z,107.40
2018-12-30T08:21:41.989Z,106.30
2018-12-30T08:24:13.261Z,104.67
2018-12-30T08:26:44.598Z,89.13
2018-12-30T08:29:16.100Z,88.47
2018-12-30T08:31:47.698Z,87.00
2018-12-30T08:34:24.318Z,70.77
2018-12-30T08:36:56.607Z,41.23
2018-12-30T08:39:30.302Z,38.87
2018-12-30T08:42:01.851Z,36.73
2018-12-30T08:44:33.097Z,35.00
2018-12-30T08:47:04.411Z,40.77
2018-12-30T08:49:37.067Z,30.73
2018-12-30T08:52:08.585Z,17.87
2018-12-30T08:54:39.825Z,23.07
2018-12-30T08:57:11.099Z,19.90
2018-12-30T08:59:42.674Z,15.73
2018-12-30T09:02:13.945Z,14.80
2018-12-30T09:04:48.315Z,13.23
2018-12-30T09:07:20.141Z,9.30
2018-12-30T09:09:51.395Z,8.77
2018-12-30T09:12:22.699Z,35.47
2018-12-30T09:14:53.988Z,25.20
2018-12-30T09:17:25.390Z,18.40
2018-12-30T09:19:57.115Z,17.47
2018-12-30T09:22:28.566Z,6.37
2018-12-30T09:25:00.168Z,6.53
2018-12-30T09:27:32.821Z,7.30
2018-12-30T09:30:04.330Z,10.47
2018-12-30T09:32:35.489Z,17.33
2018-12-30T09:35:06.964Z,3.93
2018-12-30T09:37:38.253Z,8.97
2018-12-30T09:40:10.087Z,5.90
2018-12-30T09:42:41.364Z,7.57
2018-12-30T09:45:12.680Z,8.63
2018-12-30T09:47:44.918Z,13.50
2018-12-30T09:50:16.330Z,10.97
2018-12-30T09:52:48.181Z,11.60
2018-12-30T09:55:19.622Z,8.47
2018-12-30T09:57:50.841Z,9.40
2018-12-30T10:00:23.173Z,10.50
2018-12-30T10:02:54.670Z,9.93
2018-12-30T10:05:26.081Z,13.57
2018-12-30T10:07:57.475Z,7.70
2018-12-30T10:10:28.881Z,9.33
2018-12-30T10:13:00.081Z,8.77
2018-12-30T10:15:31.647Z,8.90
2018-12-30T10:18:03.238Z,7.87
2018-12-30T10:20:34.615Z,11.93
2018-12-30T10:23:06.504Z,7.90
2018-12-30T10:25:37.854Z,8.57
2018-12-30T10:28:09.222Z,9.07
2018-12-30T10:30:40.583Z,11.17
2018-12-30T10:33:11.799Z,16.23
2018-12-30T10:35:43.998Z,18.47
2018-12-30T10:38:15.263Z,20.53
2018-12-30T10:40:46.739Z,18.50
2018-12-30T10:43:18.400Z,21.50
2018-12-30T10:45:49.923Z,19.00
2018-12-30T10:48:21.467Z,22.20
2018-12-30T10:50:52.828Z,23.50
2018-12-30T10:53:24.060Z,26.77
2018-12-30T10:55:56.852Z,32.70
2018-12-30T10:58:28.224Z,34.53
2018-12-30T11:00:59.545Z,35.60
2018-12-30T11:03:31.863Z,37.20
2018-12-30T11:06:03.213Z,34.53
2018-12-30T11:08:35.683Z,39.90
2018-12-30T11:11:07.566Z,43.77
2018-12-30T11:13:38.837Z,42.63
2018-12-30T11:16:11.155Z,69.47
2018-12-30T11:18:43.634Z,72.17
2018-12-30T11:21:15.004Z,56.80
2018-12-30T11:23:47.219Z,59.00
2018-12-30T11:26:18.592Z,46.47
2018-12-30T11:28:50.969Z,48.27
2018-12-30T11:31:22.309Z,37.43
2018-12-30T11:33:53.785Z,72.10
2018-12-30T11:36:25.110Z,44.73
2018-12-30T11:38:56.479Z,36.93
2018-12-30T11:41:29.231Z,28.00
2018-12-30T11:44:00.929Z,26.37
2018-12-30T11:46:32.134Z,33.57
2018-12-30T11:49:04.550Z,28.27
2018-12-30T11:51:36.114Z,26.83
2018-12-30T11:54:07.282Z,26.63
2018-12-30T11:56:38.644Z,25.27
2018-12-30T11:59:10.002Z,24.57
2018-12-30T12:01:41.327Z,21.47
2018-12-30T12:04:12.748Z,22.10
2018-12-30T12:06:44.158Z,22.57
2018-12-30T12:09:15.748Z,38.53
2018-12-30T12:11:48.093Z,46.93
2018-12-30T12:14:19.361Z,47.47
2018-12-30T12:16:50.790Z,44.70
2018-12-30T12:19:21.900Z,48.73
2018-12-30T12:21:53.187Z,42.33
2018-12-30T12:24:25.325Z,46.93
2018-12-30T12:26:57.535Z,56.00
2018-12-30T12:29:29.235Z,50.57
2018-12-30T12:32:00.631Z,58.33
2018-12-30T12:34:32.122Z,69.27
2018-12-30T12:37:03.531Z,70.37
2018-12-30T12:39:35.040Z,67.87
2018-12-30T12:42:06.592Z,77.77
2018-12-30T12:44:38.089Z,92.57
2018-12-30T12:47:09.451Z,89.37
2018-12-30T12:49:41.020Z,94.67
2018-12-30T12:52:12.380Z,83.40
2018-12-30T12:54:44.008Z,97.33
2018-12-30T12:57:15.112Z,84.37
2018-12-30T12:59:46.269Z,125.10
2018-12-30T13:02:17.718Z,123.23
2018-12-30T13:04:49.199Z,91.03
2018-12-30T13:07:20.290Z,102.90
2018-12-30T13:09:51.835Z,82.13
2018-12-30T13:12:23.334Z,90.43
2018-12-30T13:14:54.560Z,119.00
2018-12-30T13:17:26.144Z,113.07
2018-12-30T13:19:57.660Z,100.30
2018-12-30T13:22:28.924Z,87.17
2018-12-30T13:25:00.342Z,89.50
2018-12-30T13:27:31.644Z,80.50
2018-12-30T13:30:03.060Z,85.90
2018-12-30T13:32:34.135Z,83.20
2018-12-30T13:35:05.581Z,80.93
2018-12-30T13:37:37.132Z,89.50
2018-12-30T13:40:08.598Z,102.43
2018-12-30T13:42:41.175Z,92.77
2018-12-30T13:45:11.658Z,91.37
2018-12-30T13:47:43.217Z,84.83
2018-12-30T13:50:14.650Z,89.03
2018-12-30T13:52:45.972Z,84.27
2018-12-30T13:55:18.530Z,89.27
2018-12-30T13:57:50.463Z,76.20
2018-12-30T14:00:21.827Z,82.63
2018-12-30T14:02:53.310Z,72.13
2018-12-30T14:05:24.624Z,74.47
2018-12-30T14:07:55.908Z,81.40
2018-12-30T14:10:28.304Z,87.53
2018-12-30T14:12:59.716Z,112.40
2018-12-30T14:15:31.076Z,136.43
2018-12-30T14:18:02.379Z,121.30
2018-12-30T14:20:33.728Z,67.47
2018-12-30T14:23:05.226Z,57.13
2018-12-30T14:25:36.629Z,47.47
2018-12-30T14:28:08.386Z,45.00
2018-12-30T14:30:39.798Z,40.03
2018-12-30T14:33:12.370Z,37.33
2018-12-30T14:35:45.086Z,35.90
2018-12-30T14:38:16.445Z,36.48
2018-12-30T14:40:48.395Z,34.43
2018-12-30T14:43:20.175Z,37.42
2018-12-30T14:45:51.558Z,51.10
2018-12-30T14:48:28.089Z,52.37
2018-12-30T14:51:01.176Z,56.90
2018-12-30T14:53:32.287Z,61.40
2018-12-30T14:56:03.644Z,51.77
2018-12-30T14:58:35.883Z,49.03
2018-12-30T15:01:14.621Z,44.85
2018-12-30T15:03:40.277Z,43.38
2018-12-30T15:06:11.836Z,43.90
2018-12-30T15:08:43.104Z,38.65
2018-12-30T15:11:14.493Z,41.75
2018-12-30T15:13:45.818Z,51.77
2018-12-30T15:16:17.310Z,48.15
2018-12-30T15:18:48.616Z,53.55
2018-12-30T15:21:20.077Z,47.03
2018-12-30T15:23:51.862Z,39.20
2018-12-30T15:26:23.522Z,55.38
2018-12-30T15:28:55.990Z,56.45
2018-12-30T15:31:27.196Z,36.38
2018-12-30T15:33:58.928Z,31.87
2018-12-30T15:36:30.233Z,41.23
2018-12-30T15:39:01.703Z,37.90
2018-12-30T15:41:34.427Z,65.20
2018-12-30T15:44:05.898Z,46.70
2018-12-30T15:46:37.343Z,51.28
2018-12-30T15:49:08.850Z,43.48
2018-12-30T15:51:40.562Z,45.83
2018-12-30T15:54:11.716Z,47.95
2018-12-30T15:56:43.150Z,47.40
2018-12-30T15:59:14.487Z,50.85
2018-12-30T16:01:46.613Z,49.40
2018-12-30T16:04:17.935Z,43.92
2018-12-30T16:06:49.194Z,40.45
2018-12-30T16:09:20.568Z,48.87
2018-12-30T16:11:52.048Z,59.38
2018-12-30T16:14:23.301Z,52.27
2018-12-30T16:16:54.554Z,49.73
2018-12-30T16:19:25.913Z,46.48
2018-12-30T16:21:57.410Z,43.02
2018-12-30T16:24:28.598Z,39.75
2018-12-30T16:26:59.842Z,43.58
2018-12-30T16:29:31.244Z,42.85
2018-12-30T16:32:02.812Z,44.80
2018-12-30T16:34:34.339Z,39.25
2018-12-30T16:37:05.594Z,39.92
2018-12-30T16:39:36.835Z,37.25
2018-12-30T16:42:08.880Z,38.53
2018-12-30T16:44:41.823Z,34.98
2018-12-30T16:47:13.693Z,31.93
2018-12-30T16:49:45.191Z,34.23
2018-12-30T16:52:16.624Z,36.20
2018-12-30T16:54:47.962Z,33.73
2018-12-30T16:57:18.987Z,37.67
2018-12-30T16:59:50.469Z,32.25
2018-12-30T17:02:22.109Z,35.15
2018-12-30T17:04:53.527Z,38.78
2018-12-30T17:07:26.169Z,40.00
2018-12-30T17:10:17.866Z,43.38
2018-12-30T17:12:48.902Z,40.17
2018-12-30T17:15:20.443Z,37.42
2018-12-30T17:17:53.427Z,35.83
2018-12-30T17:20:24.846Z,41.73
2018-12-30T17:22:56.394Z,43.48
2018-12-30T17:25:27.643Z,54.25
2018-12-30T17:27:58.949Z,65.10
2018-12-30T17:30:30.506Z,51.40
2018-12-30T17:33:02.093Z,46.25
2018-12-30T17:35:33.513Z,37.30
2018-12-30T17:38:05.010Z,37.75
2018-12-30T17:40:38.709Z,36.70
2018-12-30T17:43:09.592Z,42.88
2018-12-30T17:45:40.984Z,40.33
2018-12-30T17:48:12.667Z,39.10
2018-12-30T17:50:44.048Z,37.48
2018-12-30T17:53:15.492Z,39.18
2018-12-30T17:55:50.978Z,42.65
2018-12-30T17:58:20.749Z,42.20
2018-12-30T18:00:52.023Z,40.40
2018-12-30T18:03:23.637Z,38.67
2018-12-30T18:05:54.980Z,39.03
2018-12-30T18:08:26.493Z,37.60
2018-12-30T18:10:58.510Z,39.60
2018-12-30T18:13:29.615Z,35.33
2018-12-30T18:16:00.923Z,38.53
2018-12-30T18:18:32.392Z,36.53
2018-12-30T18:21:04.352Z,36.80
2018-12-30T18:23:35.931Z,34.78
2018-12-30T18:26:07.127Z,33.95
2018-12-30T18:28:38.726Z,31.93
2018-12-30T18:31:09.735Z,35.45
2018-12-30T18:33:41.424Z,36.33
2018-12-30T18:36:12.820Z,39.13
2018-12-30T18:38:44.212Z,37.23
2018-12-30T18:41:15.675Z,51.80
2018-12-30T18:43:47.084Z,43.00
2018-12-30T18:46:19.264Z,62.83
2018-12-30T18:48:50.751Z,54.53
2018-12-30T18:51:22.002Z,65.60
2018-12-30T18:53:53.591Z,68.05
2018-12-30T18:56:25.412Z,72.70
2018-12-30T18:58:56.805Z,67.97
2018-12-30T19:01:28.211Z,66.92
2018-12-30T19:03:59.621Z,65.50
2018-12-30T19:06:30.837Z,57.33
2018-12-30T19:09:02.363Z,51.20
2018-12-30T19:11:34.574Z,49.90
2018-12-30T19:14:05.976Z,50.25
2018-12-30T19:16:37.279Z,50.48
2018-12-30T19:19:08.655Z,48.98
2018-12-30T19:21:39.787Z,49.48
2018-12-30T19:24:11.085Z,57.40
2018-12-30T19:26:44.283Z,58.05
2018-12-30T19:29:15.735Z,53.78
2018-12-30T19:31:48.365Z,50.95
2018-12-30T19:34:20.359Z,52.45
2018-12-30T19:36:51.683Z,43.68
2018-12-30T19:39:23.430Z,41.28
2018-12-30T19:41:54.912Z,44.70
2018-12-30T19:44:26.383Z,45.55
2018-12-30T19:46:57.983Z,51.37
2018-12-30T19:49:29.098Z,60.78
2018-12-30T19:52:00.734Z,66.10
2018-12-30T19:54:32.071Z,67.15
2018-12-30T19:57:03.379Z,67.62
2018-12-30T19:59:35.102Z,65.17
2018-12-30T20:02:06.363Z,60.52
2018-12-30T20:04:40.793Z,73.52
2018-12-30T20:07:10.886Z,59.30
2018-12-30T20:09:42.242Z,53.08
2018-12-30T20:12:13.798Z,48.98
2018-12-30T20:14:45.231Z,49.75
2018-12-30T20:17:16.583Z,45.50
2018-12-30T20:19:48.188Z,46.68
2018-12-30T20:22:19.376Z,48.38
2018-12-30T20:24:50.751Z,51.18
2018-12-30T20:27:23.441Z,46.77
2018-12-30T20:29:54.934Z,46.63
2018-12-30T20:32:26.307Z,44.83
2018-12-30T20:34:57.617Z,49.67
2018-12-30T20:37:28.824Z,50.33
2018-12-30T20:40:00.975Z,53.98
2018-12-30T20:42:32.363Z,57.05
2018-12-30T20:45:04.853Z,51.10
2018-12-30T20:47:36.558Z,53.45
2018-12-30T20:50:09.177Z,55.15
2018-12-30T20:52:40.566Z,54.23
2018-12-30T20:55:12.390Z,56.20
2018-12-30T20:57:43.834Z,53.83
2018-12-30T21:00:15.614Z,55.80
2018-12-30T21:02:47.561Z,57.95
2018-12-30T21:05:19.739Z,55.92
2018-12-30T21:07:51.197Z,61.55
2018-12-30T21:10:22.741Z,77.78
2018-12-30T21:12:54.115Z,77.97
2018-12-30T21:15:25.503Z,100.07
2018-12-30T21:17:57.649Z,89.15
2018-12-30T21:20:29.154Z,95.47
2018-12-30T21:23:12.676Z,84.03
2018-12-30T21:25:44.196Z,75.35
2018-12-30T21:28:15.575Z,74.95
2018-12-30T21:30:46.922Z,70.30
2018-12-30T21:33:18.282Z,66.82
2018-12-30T21:35:49.726Z,73.70
2018-12-30T21:38:21.149Z,73.78
2018-12-30T21:40:52.389Z,77.42
2018-12-30T21:43:23.615Z,72.75
2018-12-30T21:45:54.974Z,76.25
2018-12-30T21:48:26.836Z,69.70
2018-12-30T21:50:58.392Z,70.10
2018-12-30T21:53:29.789Z,75.50
2018-12-30T21:56:01.248Z,67.53
2018-12-30T21:58:32.616Z,69.00
2018-12-30T22:01:03.910Z,68.37
2018-12-30T22:03:35.027Z,68.60
2018-12-30T22:06:07.204Z,69.32
2018-12-30T22:08:38.543Z,66.28
2018-12-30T22:11:10.321Z,68.12
2018-12-30T22:13:41.944Z,71.92
2018-12-30T22:16:13.380Z,71.30
2018-12-30T22:18:44.703Z,76.40
2018-12-30T22:21:16.140Z,74.00
2018-12-30T22:23:47.623Z,68.72
2018-12-30T22:26:19.140Z,69.72
2018-12-30T22:28:50.912Z,64.85
2018-12-30T22:31:22.521Z,59.73
2018-12-30T22:33:53.867Z,58.42
2018-12-30T22:36:25.339Z,69.70
2018-12-30T22:38:56.772Z,60.85
2018-12-30T22:41:28.176Z,64.22
2018-12-30T22:43:59.998Z,65.70
2018-12-30T22:46:31.171Z,62.95
2018-12-30T22:49:02.318Z,61.50
2018-12-30T22:51:34.323Z,63.40
2018-12-30T22:54:05.649Z,67.45
2018-12-30T22:56:37.839Z,64.27
2018-12-30T22:59:09.185Z,64.55
2018-12-30T23:01:43.131Z,64.17
2018-12-30T23:04:14.400Z,65.78
2018-12-30T23:06:45.539Z,65.52
2018-12-30T23:09:35.595Z,70.52
2018-12-30T23:12:07.208Z,64.92
2018-12-30T23:14:38.586Z,78.55
2018-12-30T23:17:10.206Z,73.17
2018-12-30T23:19:41.478Z,70.50
2018-12-30T23:22:13.534Z,78.00
2018-12-30T23:24:44.867Z,80.42
2018-12-30T23:27:17.287Z,73.47
2018-12-30T23:29:48.755Z,73.17
2018-12-30T23:32:20.097Z,85.15
2018-12-30T23:34:51.492Z,81.87
2018-12-30T23:37:23.062Z,73.00
2018-12-30T23:39:54.350Z,77.70
2018-12-30T23:42:26.518Z,73.35
2018-12-30T23:44:57.871Z,78.92
2018-12-30T23:47:29.194Z,81.02
2018-12-30T23:50:00.648Z,86.32
2018-12-30T23:52:32.125Z,84.05
2018-12-30T23:55:03.590Z,80.07
2018-12-30T23:57:34.845Z,83.42
